sensor_id;sensor_type;location;lat;lon;timestamp;pressure;altitude;pressure_sealevel;temperature;humidity
43503;BME280;29098;48.184;16.298;2024-02-23T00:02:12;97343.25;;;7.84;100.00
43503;BME280;29098;48.184;16.298;2024-02-23T00:04:38;97356.94;;;7.86;100.00
43503;BME280;29098;48.184;16.298;2024-02-23T00:07:03;97390.31;;;8.04;100.00
43503;BME280;29098;48.184;16.298;2024-02-23T00:09:29;97385.88;;;8.05;100.00
43503;BME280;29098;48.184;16.298;2024-02-23T00:11:54;97386.09;;;8.03;100.00
43503;BME280;29098;48.184;16.298;2024-02-23T00:14:20;97348.69;;;7.82;100.00
43503;BME280;29098;48.184;16.298;2024-02-23T00:16:46;97353.53;;;7.86;100.00
43503;BME280;29098;48.184;16.298;2024-02-23T00:19:11;97356.19;;;7.79;100.00
43503;BME280;29098;48.184;16.298;2024-02-23T00:21:38;97357.13;;;7.91;100.00
43503;BME280;29098;48.184;16.298;2024-02-23T00:24:05;97338.03;;;7.77;100.00
43503;BME280;29098;48.184;16.298;2024-02-23T00:26:31;97317.09;;;7.71;100.00
43503;BME280;29098;48.184;16.298;2024-02-23T00:28:57;97368.94;;;8.01;100.00
43503;BME280;29098;48.184;16.298;2024-02-23T00:31:22;97350.84;;;7.92;100.00
43503;BME280;29098;48.184;16.298;2024-02-23T00:33:47;97355.72;;;7.89;100.00
43503;BME280;29098;48.184;16.298;2024-02-23T00:36:13;97375.00;;;8.01;100.00
43503;BME280;29098;48.184;16.298;2024-02-23T00:38:39;97358.50;;;7.94;100.00
43503;BME280;29098;48.184;16.298;2024-02-23T00:41:05;97319.00;;;7.89;100.00
43503;BME280;29098;48.184;16.298;2024-02-23T00:43:40;97360.13;;;7.95;100.00
43503;BME280;29098;48.184;16.298;2024-02-23T00:46:09;97373.38;;;8.00;100.00
43503;BME280;29098;48.184;16.298;2024-02-23T00:48:34;97365.69;;;8.05;100.00
43503;BME280;29098;48.184;16.298;2024-02-23T00:51:01;97309.34;;;7.82;100.00
43503;BME280;29098;48.184;16.298;2024-02-23T00:53:28;97344.78;;;7.92;100.00
43503;BME280;29098;48.184;16.298;2024-02-23T00:55:53;97364.13;;;7.98;100.00
43503;BME280;29098;48.184;16.298;2024-02-23T00:58:19;97370.63;;;7.95;100.00
43503;BME280;29098;48.184;16.298;2024-02-23T01:00:45;97401.19;;;8.08;100.00
43503;BME280;29098;48.184;16.298;2024-02-23T01:03:10;97366.38;;;7.94;100.00
43503;BME280;29098;48.184;16.298;2024-02-23T01:05:36;97349.25;;;7.91;100.00
43503;BME280;29098;48.184;16.298;2024-02-23T01:08:02;97389.13;;;8.00;100.00
43503;BME280;29098;48.184;16.298;2024-02-23T01:10:28;97360.69;;;7.97;100.00
43503;BME280;29098;48.184;16.298;2024-02-23T01:12:53;97311.00;;;7.77;100.00
43503;BME280;29098;48.184;16.298;2024-02-23T01:15:19;97361.72;;;7.96;100.00
43503;BME280;29098;48.184;16.298;2024-02-23T01:17:45;97386.66;;;8.05;100.00
43503;BME280;29098;48.184;16.298;2024-02-23T01:20:10;97373.34;;;8.07;100.00
43503;BME280;29098;48.184;16.298;2024-02-23T01:22:36;97364.34;;;7.96;100.00
43503;BME280;29098;48.184;16.298;2024-02-23T01:25:02;97348.78;;;8.01;100.00
43503;BME280;29098;48.184;16.298;2024-02-23T01:27:28;97351.38;;;7.76;100.00
43503;BME280;29098;48.184;16.298;2024-02-23T01:29:53;97360.78;;;7.84;100.00
43503;BME280;29098;48.184;16.298;2024-02-23T01:32:19;97371.41;;;7.95;100.00
43503;BME280;29098;48.184;16.298;2024-02-23T01:34:44;97348.91;;;7.81;100.00
43503;BME280;29098;48.184;16.298;2024-02-23T01:37:10;97361.44;;;7.79;100.00
43503;BME280;29098;48.184;16.298;2024-02-23T01:39:36;97353.81;;;7.71;100.00
43503;BME280;29098;48.184;16.298;2024-02-23T01:42:02;97345.66;;;7.86;100.00
43503;BME280;29098;48.184;16.298;2024-02-23T01:44:27;97377.50;;;7.89;100.00
43503;BME280;29098;48.184;16.298;2024-02-23T01:46:53;97351.25;;;7.89;100.00
43503;BME280;29098;48.184;16.298;2024-02-23T01:49:20;97324.38;;;7.68;100.00
43503;BME280;29098;48.184;16.298;2024-02-23T01:51:45;97350.53;;;7.82;100.00
43503;BME280;29098;48.184;16.298;2024-02-23T01:54:11;97362.56;;;7.90;100.00
43503;BME280;29098;48.184;16.298;2024-02-23T01:56:37;97376.31;;;7.85;100.00
43503;BME280;29098;48.184;16.298;2024-02-23T01:59:05;97367.63;;;7.85;100.00
43503;BME280;29098;48.184;16.298;2024-02-23T02:01:31;97325.22;;;7.62;100.00
43503;BME280;29098;48.184;16.298;2024-02-23T02:03:58;97365.66;;;7.80;100.00
43503;BME280;29098;48.184;16.298;2024-02-23T02:06:24;97324.28;;;7.57;100.00
43503;BME280;29098;48.184;16.298;2024-02-23T02:08:50;97303.06;;;7.58;100.00
43503;BME280;29098;48.184;16.298;2024-02-23T02:11:15;97347.72;;;7.77;100.00
43503;BME280;29098;48.184;16.298;2024-02-23T02:13:41;97314.81;;;7.56;100.00
43503;BME280;29098;48.184;16.298;2024-02-23T02:16:06;97338.34;;;7.62;100.00
43503;BME280;29098;48.184;16.298;2024-02-23T02:18:32;97355.47;;;7.65;100.00
43503;BME280;29098;48.184;16.298;2024-02-23T02:20:58;97357.66;;;7.75;100.00
43503;BME280;29098;48.184;16.298;2024-02-23T02:23:24;97362.66;;;7.76;100.00
43503;BME280;29098;48.184;16.298;2024-02-23T02:25:58;97328.69;;;7.56;100.00
43503;BME280;29098;48.184;16.298;2024-02-23T02:28:24;97316.81;;;7.53;100.00
43503;BME280;29098;48.184;16.298;2024-02-23T02:30:53;97334.75;;;7.57;100.00
43503;BME280;29098;48.184;16.298;2024-02-23T02:33:19;97357.72;;;7.61;100.00
43503;BME280;29098;48.184;16.298;2024-02-23T02:35:44;97383.31;;;7.66;100.00
43503;BME280;29098;48.184;16.298;2024-02-23T02:38:11;97375.09;;;7.56;100.00
43503;BME280;29098;48.184;16.298;2024-02-23T02:40:36;97385.34;;;7.64;100.00
43503;BME280;29098;48.184;16.298;2024-02-23T02:43:02;97382.09;;;7.68;100.00
43503;BME280;29098;48.184;16.298;2024-02-23T02:45:28;97372.75;;;7.73;100.00
43503;BME280;29098;48.184;16.298;2024-02-23T02:47:53;97374.00;;;7.70;100.00
43503;BME280;29098;48.184;16.298;2024-02-23T02:50:18;97388.56;;;7.66;100.00
43503;BME280;29098;48.184;16.298;2024-02-23T02:52:44;97406.28;;;7.71;100.00
43503;BME280;29098;48.184;16.298;2024-02-23T02:55:10;97410.69;;;7.70;100.00
43503;BME280;29098;48.184;16.298;2024-02-23T02:57:35;97390.97;;;7.67;100.00
43503;BME280;29098;48.184;16.298;2024-02-23T03:00:02;97370.28;;;7.52;100.00
43503;BME280;29098;48.184;16.298;2024-02-23T03:02:30;97418.50;;;7.84;100.00
43503;BME280;29098;48.184;16.298;2024-02-23T03:04:56;97377.69;;;7.62;100.00
43503;BME280;29098;48.184;16.298;2024-02-23T03:07:21;97420.75;;;7.80;100.00
43503;BME280;29098;48.184;16.298;2024-02-23T03:09:47;97408.25;;;7.75;100.00
43503;BME280;29098;48.184;16.298;2024-02-23T03:12:13;97372.44;;;7.62;100.00
43503;BME280;29098;48.184;16.298;2024-02-23T03:14:39;97395.53;;;7.79;100.00
43503;BME280;29098;48.184;16.298;2024-02-23T03:17:07;97412.09;;;7.73;100.00
43503;BME280;29098;48.184;16.298;2024-02-23T03:19:32;97446.13;;;7.86;100.00
43503;BME280;29098;48.184;16.298;2024-02-23T03:21:58;97403.66;;;7.71;100.00
43503;BME280;29098;48.184;16.298;2024-02-23T03:24:24;97402.69;;;7.65;100.00
43503;BME280;29098;48.184;16.298;2024-02-23T03:26:49;97468.78;;;7.80;100.00
43503;BME280;29098;48.184;16.298;2024-02-23T03:29:15;97423.47;;;7.66;100.00
43503;BME280;29098;48.184;16.298;2024-02-23T03:31:41;97451.19;;;7.81;100.00
43503;BME280;29098;48.184;16.298;2024-02-23T03:34:06;97503.81;;;7.93;100.00
43503;BME280;29098;48.184;16.298;2024-02-23T03:36:33;97488.16;;;7.79;100.00
43503;BME280;29098;48.184;16.298;2024-02-23T03:39:00;97478.91;;;7.70;100.00
43503;BME280;29098;48.184;16.298;2024-02-23T03:41:25;97489.06;;;7.53;100.00
43503;BME280;29098;48.184;16.298;2024-02-23T03:43:51;97499.72;;;7.58;100.00
43503;BME280;29098;48.184;16.298;2024-02-23T03:46:16;97516.44;;;7.71;100.00
43503;BME280;29098;48.184;16.298;2024-02-23T03:48:43;97520.06;;;7.70;100.00
43503;BME280;29098;48.184;16.298;2024-02-23T03:51:10;97529.16;;;7.67;100.00
43503;BME280;29098;48.184;16.298;2024-02-23T03:53:35;97510.63;;;7.55;100.00
43503;BME280;29098;48.184;16.298;2024-02-23T03:56:01;97497.75;;;7.47;100.00
43503;BME280;29098;48.184;16.298;2024-02-23T03:58:26;97542.50;;;7.59;100.00
43503;BME280;29098;48.184;16.298;2024-02-23T04:00:51;97618.06;;;7.89;100.00
43503;BME280;29098;48.184;16.298;2024-02-23T04:03:17;97604.78;;;7.77;100.00
43503;BME280;29098;48.184;16.298;2024-02-23T04:05:43;97598.19;;;7.54;100.00
43503;BME280;29098;48.184;16.298;2024-02-23T04:08:08;97606.16;;;7.86;100.00
43503;BME280;29098;48.184;16.298;2024-02-23T04:10:34;97631.78;;;7.98;100.00
43503;BME280;29098;48.184;16.298;2024-02-23T04:13:00;97614.41;;;7.97;100.00
43503;BME280;29098;48.184;16.298;2024-02-23T04:15:26;97610.00;;;7.84;100.00
43503;BME280;29098;48.184;16.298;2024-02-23T04:17:51;97626.69;;;8.03;100.00
43503;BME280;29098;48.184;16.298;2024-02-23T04:20:17;97578.94;;;7.80;100.00
43503;BME280;29098;48.184;16.298;2024-02-23T04:22:44;97639.03;;;7.95;100.00
43503;BME280;29098;48.184;16.298;2024-02-23T04:25:10;97600.50;;;7.89;100.00
43503;BME280;29098;48.184;16.298;2024-02-23T04:27:35;97638.78;;;8.04;100.00
43503;BME280;29098;48.184;16.298;2024-02-23T04:30:01;97651.47;;;8.20;100.00
43503;BME280;29098;48.184;16.298;2024-02-23T04:32:26;97620.66;;;7.95;100.00
43503;BME280;29098;48.184;16.298;2024-02-23T04:34:52;97601.91;;;7.99;100.00
43503;BME280;29098;48.184;16.298;2024-02-23T04:37:17;97607.16;;;7.92;100.00
43503;BME280;29098;48.184;16.298;2024-02-23T04:39:46;97616.06;;;7.84;100.00
43503;BME280;29098;48.184;16.298;2024-02-23T04:42:11;97620.44;;;8.04;100.00
43503;BME280;29098;48.184;16.298;2024-02-23T04:44:37;97620.63;;;8.09;100.00
43503;BME280;29098;48.184;16.298;2024-02-23T04:47:02;97612.19;;;7.93;100.00
43503;BME280;29098;48.184;16.298;2024-02-23T04:49:28;97598.66;;;7.97;100.00
43503;BME280;29098;48.184;16.298;2024-02-23T04:51:54;97601.84;;;8.05;100.00
43503;BME280;29098;48.184;16.298;2024-02-23T04:54:19;97598.66;;;8.03;100.00
43503;BME280;29098;48.184;16.298;2024-02-23T04:56:47;97590.63;;;7.91;100.00
43503;BME280;29098;48.184;16.298;2024-02-23T04:59:13;97628.75;;;7.94;100.00
43503;BME280;29098;48.184;16.298;2024-02-23T05:01:38;97628.91;;;8.06;100.00
43503;BME280;29098;48.184;16.298;2024-02-23T05:04:04;97633.53;;;8.11;100.00
43503;BME280;29098;48.184;16.298;2024-02-23T05:06:30;97622.66;;;8.07;100.00
43503;BME280;29098;48.184;16.298;2024-02-23T05:08:56;97651.25;;;8.22;100.00
43503;BME280;29098;48.184;16.298;2024-02-23T05:11:21;97615.56;;;8.07;100.00
43503;BME280;29098;48.184;16.298;2024-02-23T05:13:47;97595.97;;;8.10;100.00
43503;BME280;29098;48.184;16.298;2024-02-23T05:16:15;97621.63;;;8.08;100.00
43503;BME280;29098;48.184;16.298;2024-02-23T05:18:41;97620.81;;;8.14;100.00
43503;BME280;29098;48.184;16.298;2024-02-23T05:21:07;97649.06;;;8.19;100.00
43503;BME280;29098;48.184;16.298;2024-02-23T05:23:33;97651.09;;;8.10;100.00
43503;BME280;29098;48.184;16.298;2024-02-23T05:25:58;97656.94;;;8.12;100.00
43503;BME280;29098;48.184;16.298;2024-02-23T05:28:24;97640.25;;;8.00;100.00
43503;BME280;29098;48.184;16.298;2024-02-23T05:30:50;97655.59;;;7.96;100.00
43503;BME280;29098;48.184;16.298;2024-02-23T05:33:15;97674.53;;;8.12;100.00
43503;BME280;29098;48.184;16.298;2024-02-23T05:35:40;97645.06;;;8.03;100.00
43503;BME280;29098;48.184;16.298;2024-02-23T05:38:06;97656.94;;;8.12;100.00
43503;BME280;29098;48.184;16.298;2024-02-23T05:40:32;97693.09;;;8.17;100.00
43503;BME280;29098;48.184;16.298;2024-02-23T05:43:01;97683.41;;;8.04;100.00
43503;BME280;29098;48.184;16.298;2024-02-23T05:45:26;97690.09;;;8.00;100.00
43503;BME280;29098;48.184;16.298;2024-02-23T05:47:52;97675.31;;;8.12;100.00
43503;BME280;29098;48.184;16.298;2024-02-23T05:50:17;97724.94;;;8.27;100.00
43503;BME280;29098;48.184;16.298;2024-02-23T05:52:43;97717.50;;;8.24;100.00
43503;BME280;29098;48.184;16.298;2024-02-23T05:55:08;97686.59;;;8.19;100.00
43503;BME280;29098;48.184;16.298;2024-02-23T05:57:34;97670.06;;;8.19;100.00
43503;BME280;29098;48.184;16.298;2024-02-23T05:59:59;97721.28;;;8.35;100.00
43503;BME280;29098;48.184;16.298;2024-02-23T06:02:26;97734.00;;;8.38;100.00
43503;BME280;29098;48.184;16.298;2024-02-23T06:04:51;97748.09;;;8.50;100.00
43503;BME280;29098;48.184;16.298;2024-02-23T06:07:17;97702.53;;;8.25;100.00
43503;BME280;29098;48.184;16.298;2024-02-23T06:09:43;97717.66;;;8.36;100.00
43503;BME280;29098;48.184;16.298;2024-02-23T06:12:09;97752.19;;;8.33;100.00
43503;BME280;29098;48.184;16.298;2024-02-23T06:14:35;97739.06;;;8.33;100.00
43503;BME280;29098;48.184;16.298;2024-02-23T06:17:01;97699.72;;;8.19;100.00
43503;BME280;29098;48.184;16.298;2024-02-23T06:19:27;97745.91;;;8.34;100.00
43503;BME280;29098;48.184;16.298;2024-02-23T06:21:52;97748.53;;;8.34;100.00
43503;BME280;29098;48.184;16.298;2024-02-23T06:24:18;97780.84;;;8.48;100.00
43503;BME280;29098;48.184;16.298;2024-02-23T06:26:43;97774.56;;;8.56;100.00
43503;BME280;29098;48.184;16.298;2024-02-23T06:29:10;97778.03;;;8.56;100.00
43503;BME280;29098;48.184;16.298;2024-02-23T06:31:38;97766.72;;;8.35;100.00
43503;BME280;29098;48.184;16.298;2024-02-23T06:34:04;97770.59;;;8.26;100.00
43503;BME280;29098;48.184;16.298;2024-02-23T06:36:30;97796.00;;;8.53;100.00
43503;BME280;29098;48.184;16.298;2024-02-23T06:38:55;97785.09;;;8.42;100.00
43503;BME280;29098;48.184;16.298;2024-02-23T06:41:21;97741.88;;;8.52;100.00
43503;BME280;29098;48.184;16.298;2024-02-23T06:43:47;97779.34;;;8.72;100.00
43503;BME280;29098;48.184;16.298;2024-02-23T06:46:12;97745.81;;;8.74;100.00
43503;BME280;29098;48.184;16.298;2024-02-23T06:48:38;97780.81;;;8.61;100.00
43503;BME280;29098;48.184;16.298;2024-02-23T06:51:07;97780.19;;;8.66;100.00
43503;BME280;29098;48.184;16.298;2024-02-23T06:53:35;97762.66;;;8.46;100.00
43503;BME280;29098;48.184;16.298;2024-02-23T06:56:00;97782.22;;;8.50;100.00
43503;BME280;29098;48.184;16.298;2024-02-23T06:58:26;97769.31;;;8.42;100.00
43503;BME280;29098;48.184;16.298;2024-02-23T07:00:52;97798.41;;;8.61;100.00
43503;BME280;29098;48.184;16.298;2024-02-23T07:03:17;97784.25;;;8.48;100.00
43503;BME280;29098;48.184;16.298;2024-02-23T07:05:43;97796.81;;;8.60;100.00
43503;BME280;29098;48.184;16.298;2024-02-23T07:08:08;97774.56;;;8.42;100.00
43503;BME280;29098;48.184;16.298;2024-02-23T07:10:34;97813.78;;;8.57;100.00
43503;BME280;29098;48.184;16.298;2024-02-23T07:13:00;97782.88;;;8.53;100.00
43503;BME280;29098;48.184;16.298;2024-02-23T07:15:25;97832.09;;;8.77;100.00
43503;BME280;29098;48.184;16.298;2024-02-23T07:17:55;97798.56;;;8.66;100.00
43503;BME280;29098;48.184;16.298;2024-02-23T07:20:21;97820.16;;;8.82;100.00
43503;BME280;29098;48.184;16.298;2024-02-23T07:22:47;97815.78;;;8.62;100.00
43503;BME280;29098;48.184;16.298;2024-02-23T07:25:17;97812.88;;;8.84;100.00
43503;BME280;29098;48.184;16.298;2024-02-23T07:27:43;97825.47;;;8.68;100.00
43503;BME280;29098;48.184;16.298;2024-02-23T07:30:09;97823.63;;;8.75;100.00
43503;BME280;29098;48.184;16.298;2024-02-23T07:32:35;97838.72;;;8.87;100.00
43503;BME280;29098;48.184;16.298;2024-02-23T07:35:00;97867.59;;;9.00;100.00
43503;BME280;29098;48.184;16.298;2024-02-23T07:37:26;97860.19;;;8.84;100.00
43503;BME280;29098;48.184;16.298;2024-02-23T07:39:52;97876.66;;;9.04;100.00
43503;BME280;29098;48.184;16.298;2024-02-23T07:42:18;97857.75;;;8.82;100.00
43503;BME280;29098;48.184;16.298;2024-02-23T07:44:44;97891.25;;;9.00;100.00
43503;BME280;29098;48.184;16.298;2024-02-23T07:47:10;97886.06;;;8.73;100.00
43503;BME280;29098;48.184;16.298;2024-02-23T07:49:36;97908.50;;;8.83;100.00
43503;BME280;29098;48.184;16.298;2024-02-23T07:52:02;97887.88;;;8.66;100.00
43503;BME280;29098;48.184;16.298;2024-02-23T07:54:28;97909.91;;;8.79;100.00
43503;BME280;29098;48.184;16.298;2024-02-23T07:56:53;97884.47;;;8.66;100.00
43503;BME280;29098;48.184;16.298;2024-02-23T07:59:19;97908.72;;;8.61;100.00
43503;BME280;29098;48.184;16.298;2024-02-23T08:01:44;97878.81;;;8.42;100.00
43503;BME280;29098;48.184;16.298;2024-02-23T08:04:10;97898.22;;;8.41;100.00
43503;BME280;29098;48.184;16.298;2024-02-23T08:06:35;97877.19;;;8.34;100.00
43503;BME280;29098;48.184;16.298;2024-02-23T08:09:01;97901.66;;;8.34;100.00
43503;BME280;29098;48.184;16.298;2024-02-23T08:11:27;97909.34;;;8.36;100.00
43503;BME280;29098;48.184;16.298;2024-02-23T08:13:53;97918.03;;;8.30;100.00
43503;BME280;29098;48.184;16.298;2024-02-23T08:16:18;97900.22;;;8.18;100.00
43503;BME280;29098;48.184;16.298;2024-02-23T08:18:44;97904.66;;;8.11;100.00
43503;BME280;29098;48.184;16.298;2024-02-23T08:21:12;97921.66;;;8.29;100.00
43503;BME280;29098;48.184;16.298;2024-02-23T08:23:38;97947.09;;;8.48;100.00
43503;BME280;29098;48.184;16.298;2024-02-23T08:26:03;97913.78;;;8.35;100.00
43503;BME280;29098;48.184;16.298;2024-02-23T08:28:29;97930.34;;;8.43;100.00
43503;BME280;29098;48.184;16.298;2024-02-23T08:30:54;97918.41;;;8.27;100.00
43503;BME280;29098;48.184;16.298;2024-02-23T08:33:19;97915.97;;;8.39;100.00
43503;BME280;29098;48.184;16.298;2024-02-23T08:35:45;97924.06;;;8.44;100.00
43503;BME280;29098;48.184;16.298;2024-02-23T08:38:11;97934.56;;;8.50;100.00
43503;BME280;29098;48.184;16.298;2024-02-23T08:40:36;97957.66;;;8.55;100.00
43503;BME280;29098;48.184;16.298;2024-02-23T08:43:02;97926.91;;;8.49;100.00
43503;BME280;29098;48.184;16.298;2024-02-23T08:45:28;97932.16;;;8.56;100.00
43503;BME280;29098;48.184;16.298;2024-02-23T08:47:53;97951.50;;;9.02;100.00
43503;BME280;29098;48.184;16.298;2024-02-23T08:50:19;97964.41;;;9.17;100.00
43503;BME280;29098;48.184;16.298;2024-02-23T08:52:44;97947.81;;;9.16;100.00
43503;BME280;29098;48.184;16.298;2024-02-23T08:55:10;97962.78;;;9.16;100.00
43503;BME280;29098;48.184;16.298;2024-02-23T08:57:37;97979.31;;;9.37;100.00
43503;BME280;29098;48.184;16.298;2024-02-23T09:00:03;97938.22;;;8.76;100.00
43503;BME280;29098;48.184;16.298;2024-02-23T09:02:30;97950.34;;;8.77;100.00
43503;BME280;29098;48.184;16.298;2024-02-23T09:04:56;97958.00;;;8.72;100.00
43503;BME280;29098;48.184;16.298;2024-02-23T09:07:21;97968.31;;;8.74;100.00
43503;BME280;29098;48.184;16.298;2024-02-23T09:09:47;98002.25;;;9.02;100.00
43503;BME280;29098;48.184;16.298;2024-02-23T09:12:14;97952.56;;;8.74;100.00
43503;BME280;29098;48.184;16.298;2024-02-23T09:14:41;97960.03;;;8.70;100.00
43503;BME280;29098;48.184;16.298;2024-02-23T09:17:08;97968.91;;;8.76;100.00
43503;BME280;29098;48.184;16.298;2024-02-23T09:19:35;97978.59;;;8.89;100.00
43503;BME280;29098;48.184;16.298;2024-02-23T09:22:02;97962.25;;;8.87;100.00
43503;BME280;29098;48.184;16.298;2024-02-23T09:24:27;97983.47;;;9.06;100.00
43503;BME280;29098;48.184;16.298;2024-02-23T09:26:53;97997.78;;;9.10;100.00
43503;BME280;29098;48.184;16.298;2024-02-23T09:29:18;98025.91;;;9.16;100.00
43503;BME280;29098;48.184;16.298;2024-02-23T09:31:44;98009.28;;;9.15;100.00
43503;BME280;29098;48.184;16.298;2024-02-23T09:34:10;98022.06;;;9.05;100.00
43503;BME280;29098;48.184;16.298;2024-02-23T09:36:35;97999.44;;;8.97;100.00
43503;BME280;29098;48.184;16.298;2024-02-23T09:39:01;97979.44;;;8.83;100.00
43503;BME280;29098;48.184;16.298;2024-02-23T09:41:29;97995.22;;;8.83;100.00
43503;BME280;29098;48.184;16.298;2024-02-23T09:43:58;98013.16;;;8.93;100.00
43503;BME280;29098;48.184;16.298;2024-02-23T09:46:25;98005.28;;;9.13;100.00
43503;BME280;29098;48.184;16.298;2024-02-23T09:48:51;98019.25;;;9.07;100.00
43503;BME280;29098;48.184;16.298;2024-02-23T09:51:17;98023.09;;;8.97;100.00
43503;BME280;29098;48.184;16.298;2024-02-23T09:53:43;98020.84;;;9.08;100.00
43503;BME280;29098;48.184;16.298;2024-02-23T09:56:09;97995.59;;;8.93;100.00
43503;BME280;29098;48.184;16.298;2024-02-23T09:58:39;98031.56;;;8.93;100.00
43503;BME280;29098;48.184;16.298;2024-02-23T10:01:06;97999.03;;;8.87;100.00
43503;BME280;29098;48.184;16.298;2024-02-23T10:03:32;97983.06;;;8.88;100.00
43503;BME280;29098;48.184;16.298;2024-02-23T10:05:58;98000.66;;;8.95;100.00
43503;BME280;29098;48.184;16.298;2024-02-23T10:08:25;97987.94;;;8.85;100.00
43503;BME280;29098;48.184;16.298;2024-02-23T10:10:50;97956.59;;;8.76;100.00
43503;BME280;29098;48.184;16.298;2024-02-23T10:13:20;97968.72;;;8.91;100.00
43503;BME280;29098;48.184;16.298;2024-02-23T10:15:46;97970.91;;;9.01;100.00
43503;BME280;29098;48.184;16.298;2024-02-23T10:18:12;97973.97;;;8.77;100.00
43503;BME280;29098;48.184;16.298;2024-02-23T10:20:38;97973.97;;;8.91;100.00
43503;BME280;29098;48.184;16.298;2024-02-23T10:23:04;97962.47;;;8.79;100.00
43503;BME280;29098;48.184;16.298;2024-02-23T10:25:32;97972.16;;;8.85;100.00
43503;BME280;29098;48.184;16.298;2024-02-23T10:27:58;97976.78;;;8.96;100.00
43503;BME280;29098;48.184;16.298;2024-02-23T10:30:26;97941.03;;;8.75;100.00
43503;BME280;29098;48.184;16.298;2024-02-23T10:32:55;97941.84;;;8.82;100.00
43503;BME280;29098;48.184;16.298;2024-02-23T10:35:22;97940.41;;;8.93;100.00
43503;BME280;29098;48.184;16.298;2024-02-23T10:37:51;97976.56;;;9.04;100.00
43503;BME280;29098;48.184;16.298;2024-02-23T10:40:18;97959.00;;;8.98;100.00
43503;BME280;29098;48.184;16.298;2024-02-23T10:42:45;97918.75;;;8.98;100.00
43503;BME280;29098;48.184;16.298;2024-02-23T10:45:17;97919.94;;;9.09;100.00
43503;BME280;29098;48.184;16.298;2024-02-23T10:47:44;97925.56;;;9.19;100.00
43503;BME280;29098;48.184;16.298;2024-02-23T10:50:10;97923.09;;;9.31;100.00
43503;BME280;29098;48.184;16.298;2024-02-23T10:52:40;97945.50;;;9.47;100.00
43503;BME280;29098;48.184;16.298;2024-02-23T10:55:08;97901.78;;;9.46;100.00
43503;BME280;29098;48.184;16.298;2024-02-23T10:57:37;97928.09;;;9.46;100.00
43503;BME280;29098;48.184;16.298;2024-02-23T11:00:05;97938.28;;;9.75;100.00
43503;BME280;29098;48.184;16.298;2024-02-23T11:02:50;97942.38;;;9.64;100.00
43503;BME280;29098;48.184;16.298;2024-02-23T11:05:17;97928.50;;;9.43;100.00
43503;BME280;29098;48.184;16.298;2024-02-23T11:07:46;97931.38;;;9.35;100.00
43503;BME280;29098;48.184;16.298;2024-02-23T11:10:14;97910.50;;;9.40;100.00
43503;BME280;29098;48.184;16.298;2024-02-23T11:12:40;97922.16;;;9.64;100.00
43503;BME280;29098;48.184;16.298;2024-02-23T11:15:06;97919.38;;;9.52;100.00
43503;BME280;29098;48.184;16.298;2024-02-23T11:17:32;97902.97;;;9.57;100.00
43503;BME280;29098;48.184;16.298;2024-02-23T11:19:58;97905.66;;;9.43;100.00
43503;BME280;29098;48.184;16.298;2024-02-23T11:22:35;97904.63;;;9.44;100.00
43503;BME280;29098;48.184;16.298;2024-02-23T11:25:03;97963.06;;;9.53;100.00
43503;BME280;29098;48.184;16.298;2024-02-23T11:27:33;97947.69;;;9.50;100.00
43503;BME280;29098;48.184;16.298;2024-02-23T11:30:07;97918.69;;;9.25;100.00
43503;BME280;29098;48.184;16.298;2024-02-23T11:32:43;97945.69;;;9.45;100.00
43503;BME280;29098;48.184;16.298;2024-02-23T11:35:14;97915.44;;;9.23;100.00
43503;BME280;29098;48.184;16.298;2024-02-23T11:37:53;97934.84;;;9.28;100.00
43503;BME280;29098;48.184;16.298;2024-02-23T11:40:26;97912.63;;;9.17;100.00
43503;BME280;29098;48.184;16.298;2024-02-23T11:42:52;97884.31;;;9.20;100.00
43503;BME280;29098;48.184;16.298;2024-02-23T11:45:17;97906.47;;;9.44;100.00
43503;BME280;29098;48.184;16.298;2024-02-23T11:47:43;97931.91;;;9.50;100.00
43503;BME280;29098;48.184;16.298;2024-02-23T11:50:09;97856.97;;;9.27;100.00
43503;BME280;29098;48.184;16.298;2024-02-23T11:52:40;97916.34;;;9.49;100.00
43503;BME280;29098;48.184;16.298;2024-02-23T11:55:06;97868.88;;;9.30;100.00
43503;BME280;29098;48.184;16.298;2024-02-23T11:57:34;97877.44;;;9.18;100.00
43503;BME280;29098;48.184;16.298;2024-02-23T12:00:03;97875.13;;;9.36;100.00
43503;BME280;29098;48.184;16.298;2024-02-23T12:02:28;97880.56;;;9.48;100.00
43503;BME280;29098;48.184;16.298;2024-02-23T12:04:54;97894.16;;;9.38;100.00
43503;BME280;29098;48.184;16.298;2024-02-23T12:07:20;97889.09;;;9.36;100.00
43503;BME280;29098;48.184;16.298;2024-02-23T12:09:47;97915.28;;;9.56;100.00
43503;BME280;29098;48.184;16.298;2024-02-23T12:12:13;97871.31;;;9.31;100.00
43503;BME280;29098;48.184;16.298;2024-02-23T12:14:40;97888.91;;;9.31;100.00
43503;BME280;29098;48.184;16.298;2024-02-23T12:17:07;97867.22;;;9.36;100.00
43503;BME280;29098;48.184;16.298;2024-02-23T12:19:38;97876.13;;;9.35;100.00
43503;BME280;29098;48.184;16.298;2024-02-23T12:22:04;97854.06;;;9.36;100.00
43503;BME280;29098;48.184;16.298;2024-02-23T12:24:29;97830.50;;;9.22;100.00
43503;BME280;29098;48.184;16.298;2024-02-23T12:26:55;97844.06;;;9.19;100.00
43503;BME280;29098;48.184;16.298;2024-02-23T12:29:21;97871.66;;;9.42;100.00
43503;BME280;29098;48.184;16.298;2024-02-23T12:31:47;97854.06;;;9.36;100.00
43503;BME280;29098;48.184;16.298;2024-02-23T12:34:13;97880.78;;;9.39;100.00
43503;BME280;29098;48.184;16.298;2024-02-23T12:36:39;97849.19;;;9.39;100.00
43503;BME280;29098;48.184;16.298;2024-02-23T12:39:05;97826.28;;;9.14;100.00
43503;BME280;29098;48.184;16.298;2024-02-23T12:41:30;97854.16;;;9.22;100.00
43503;BME280;29098;48.184;16.298;2024-02-23T12:43:56;97861.56;;;9.39;100.00
43503;BME280;29098;48.184;16.298;2024-02-23T12:46:21;97798.25;;;9.01;100.00